Time;durP1;ratioP1;P1;durP2;ratioP2;P2;SDS_P1;SDS_P2;PMS_P1;PMS_P2;Temp;Humidity;BMP_temperature;BMP_pressure;BME280_temperature;BME280_humidity;BME280_pressure;Samples;Min_cycle;Max_cycle;Signal;HPM_P1;HPM_P2
2023/09/05 00:02:24;;;;;;;4.10;2.00;;;;;;;18.66;100.00;101090.78;4996910;28;20216;-70
2023/09/05 00:04:54;;;;;;;2.77;2.00;;;;;;;18.61;100.00;101090.78;5000284;28;20192;-71
2023/09/05 00:07:21;;;;;;;2.03;1.67;;;;;;;18.55;100.00;101088.16;5018853;28;20202;-74
2023/09/05 00:09:47;;;;;;;2.50;1.80;;;;;;;18.64;100.00;101090.81;4999036;28;20729;-70
2023/09/05 00:12:14;;;;;;;2.20;1.90;;;;;;;18.62;100.00;101097.09;5009127;28;20229;-70
2023/09/05 00:14:40;;;;;;;3.27;1.97;;;;;;;18.48;100.00;101098.06;4990829;28;20200;-70
2023/09/05 00:17:07;;;;;;;3.90;2.03;;;;;;;18.47;100.00;101090.91;4999199;28;20200;-71
2023/09/05 00:19:33;;;;;;;2.73;1.90;;;;;;;18.44;100.00;101092.72;4998308;28;20384;-70
2023/09/05 00:21:59;;;;;;;4.03;2.07;;;;;;;18.28;100.00;101101.78;5000632;28;20236;-72
2023/09/05 00:24:31;;;;;;;3.00;1.90;;;;;;;18.29;100.00;101099.06;5000361;28;20193;-70
2023/09/05 00:27:02;;;;;;;3.13;2.17;;;;;;;18.26;100.00;101092.84;4996262;28;20205;-70
2023/09/05 00:29:30;;;;;;;3.97;1.90;;;;;;;18.29;100.00;101091.03;5005778;28;20556;-71
2023/09/05 00:32:00;;;;;;;2.37;2.00;;;;;;;18.20;100.00;101095.56;4992132;28;20224;-71
2023/09/05 00:34:36;;;;;;;3.77;2.00;;;;;;;18.21;100.00;101095.56;5001623;28;20571;-70
2023/09/05 00:37:07;;;;;;;2.93;1.97;;;;;;;18.18;100.00;101098.25;4999388;28;20200;-70
2023/09/05 00:39:35;;;;;;;4.67;1.70;;;;;;;18.22;100.00;101094.66;4994287;28;20252;-70
2023/09/05 00:42:05;;;;;;;3.87;2.20;;;;;;;18.13;100.00;101089.38;4995702;28;20308;-71
2023/09/05 00:44:32;;;;;;;3.07;2.30;;;;;;;18.09;100.00;101096.53;4993355;28;20208;-71
2023/09/05 00:47:01;;;;;;;2.50;2.00;;;;;;;17.99;100.00;101086.75;4994205;28;20200;-71
2023/09/05 00:49:28;;;;;;;2.57;1.97;;;;;;;17.92;100.00;101092.16;4988920;28;20197;-73
2023/09/05 00:51:57;;;;;;;3.40;1.97;;;;;;;17.76;100.00;101099.38;4991868;28;20689;-70
2023/09/05 00:54:24;;;;;;;3.97;2.23;;;;;;;17.60;100.00;101089.59;4993863;28;20197;-72
2023/09/05 00:56:51;;;;;;;2.20;1.97;;;;;;;17.48;100.00;101086.06;4995540;28;20193;-70
2023/09/05 00:59:19;;;;;;;3.23;2.30;;;;;;;17.32;100.00;101086.13;4993234;28;20196;-72
2023/09/05 01:01:45;;;;;;;3.10;2.33;;;;;;;17.22;100.00;101086.16;4994385;28;20237;-70
2023/09/05 01:06:53;;;;;;;3.40;2.30;;;;;;;16.97;100.00;101079.06;5202135;23;20220;-70
2023/09/05 01:09:32;;;;;;;2.53;2.03;;;;;;;16.93;100.00;101082.66;4995476;28;20209;-72
2023/09/05 01:11:59;;;;;;;4.57;2.70;;;;;;;16.83;100.00;101075.53;5005761;28;20571;-70
2023/09/05 01:14:26;;;;;;;3.93;2.37;;;;;;;16.84;100.00;101078.22;4996428;28;20210;-75
2023/09/05 01:16:53;;;;;;;4.40;2.30;;;;;;;16.91;100.00;101079.97;5012471;28;20225;-73
2023/09/05 01:19:19;;;;;;;2.30;2.10;;;;;;;17.02;100.00;101077.28;4999379;28;20204;-71
2023/09/05 01:22:17;;;;;;;3.10;2.27;;;;;;;17.09;100.00;101084.41;4996728;28;20673;-70
2023/09/05 01:24:47;;;;;;;2.57;1.93;;;;;;;17.17;100.00;101074.56;4993874;28;20213;-70
2023/09/05 01:27:19;;;;;;;3.60;2.00;;;;;;;17.30;100.00;101078.13;4995438;28;20221;-70
2023/09/05 01:29:47;;;;;;;3.10;2.10;;;;;;;17.44;100.00;101083.41;5000265;28;20191;-70
2023/09/05 01:32:14;;;;;;;4.03;2.20;;;;;;;17.39;100.00;101079.88;5002525;28;20220;-71
2023/09/05 01:34:41;;;;;;;2.47;1.90;;;;;;;17.40;100.00;101077.19;4999382;28;20196;-70
2023/09/05 01:37:10;;;;;;;3.40;2.47;;;;;;;17.31;100.00;101079.00;4993368;28;20216;-71
2023/09/05 01:39:37;;;;;;;2.67;1.90;;;;;;;17.27;100.00;101077.22;4989254;28;20247;-71
2023/09/05 01:42:04;;;;;;;2.93;2.10;;;;;;;17.17;100.00;101079.03;5002592;28;20192;-71
2023/09/05 01:44:32;;;;;;;3.90;2.40;;;;;;;17.26;100.00;101079.03;4995790;28;20224;-74
2023/09/05 01:46:59;;;;;;;2.87;2.03;;;;;;;17.23;100.00;101074.56;5010936;28;20212;-72
2023/09/05 01:49:25;;;;;;;2.97;2.20;;;;;;;17.21;100.00;101079.03;5001411;28;20208;-70
2023/09/05 01:51:52;;;;;;;3.80;2.00;;;;;;;17.16;100.00;101078.13;4992764;28;20589;-70
2023/09/05 01:54:18;;;;;;;3.93;2.50;;;;;;;17.08;100.00;101065.66;4994370;28;20664;-73
2023/09/05 01:56:45;;;;;;;4.07;2.20;;;;;;;17.14;100.00;101073.69;4989949;28;20227;-70
2023/09/05 01:59:12;;;;;;;2.63;2.10;;;;;;;17.16;100.00;101071.88;4996501;28;20202;-72
2023/09/05 02:01:38;;;;;;;2.70;2.17;;;;;;;17.06;100.00;101063.00;4990365;28;20283;-75
2023/09/05 02:04:05;;;;;;;3.10;2.00;;;;;;;16.96;100.00;101063.03;4994487;28;20204;-70
2023/09/05 02:06:31;;;;;;;2.40;1.97;;;;;;;17.16;100.00;101070.09;4991898;28;20235;-74
2023/09/05 02:09:00;;;;;;;3.93;2.23;;;;;;;17.23;100.00;101077.25;4994146;28;20579;-70
2023/09/05 02:11:27;;;;;;;2.63;2.07;;;;;;;17.20;100.00;101074.53;4997263;28;20203;-70
2023/09/05 02:13:53;;;;;;;2.33;2.00;;;;;;;17.12;100.00;101081.72;4994927;28;20587;-70
2023/09/05 02:16:20;;;;;;;2.33;1.83;;;;;;;16.98;100.00;101074.63;4995577;28;20226;-74
2023/09/05 02:18:47;;;;;;;3.90;2.60;;;;;;;17.01;100.00;101077.28;4998409;28;20204;-70
2023/09/05 02:21:14;;;;;;;5.00;2.03;;;;;;;17.05;100.00;101068.34;5002433;28;20211;-70
2023/09/05 02:23:40;;;;;;;2.30;1.90;;;;;;;16.95;100.00;101074.63;4991889;28;20208;-70
2023/09/05 02:26:07;;;;;;;5.83;1.80;;;;;;;17.02;100.00;101068.34;4997099;28;20231;-72
2023/09/05 02:28:34;;;;;;;2.17;1.90;;;;;;;17.07;100.00;101072.81;4998956;28;20223;-74
2023/09/05 02:31:07;;;;;;;2.50;1.93;;;;;;;17.13;100.00;101071.91;5003953;28;20202;-71
2023/09/05 02:33:36;;;;;;;3.80;2.10;;;;;;;17.13;100.00;101067.44;4997795;28;20850;-72
2023/09/05 02:36:08;;;;;;;2.73;1.97;;;;;;;17.08;100.00;101069.22;4993341;28;20279;-71
2023/09/05 02:38:35;;;;;;;2.13;1.90;;;;;;;17.01;100.00;101078.16;4996095;28;20208;-71
2023/09/05 02:41:02;;;;;;;3.20;2.10;;;;;;;16.95;100.00;101063.91;4994035;28;20205;-70
2023/09/05 02:43:28;;;;;;;4.80;2.20;;;;;;;16.99;100.00;101063.00;4995515;28;20220;-71
2023/09/05 02:45:55;;;;;;;3.97;2.20;;;;;;;16.88;100.00;101061.25;4991573;28;20742;-72
2023/09/05 02:48:21;;;;;;;2.40;2.00;;;;;;;16.84;100.00;101071.97;4998883;28;20200;-70
2023/09/05 02:50:48;;;;;;;4.33;2.10;;;;;;;16.86;100.00;101080.88;4992339;28;20295;-70
2023/09/05 02:53:14;;;;;;;2.40;2.00;;;;;;;16.75;100.00;101066.59;4994546;28;20235;-70
2023/09/05 02:55:44;;;;;;;2.93;2.00;;;;;;;16.66;100.00;101072.84;4993794;28;20216;-71
2023/09/05 02:58:10;;;;;;;2.87;2.07;;;;;;;16.59;100.00;101071.06;4999222;28;20204;-70
2023/09/05 03:00:37;;;;;;;4.73;1.97;;;;;;;16.53;100.00;101069.28;4996125;28;20220;-72
2023/09/05 03:03:04;;;;;;;2.60;2.07;;;;;;;16.47;100.00;101081.75;4992727;28;20263;-71
2023/09/05 03:05:31;;;;;;;2.90;1.90;;;;;;;16.42;100.00;101071.06;4994502;28;20252;-72
2023/09/05 03:07:57;;;;;;;3.37;2.20;;;;;;;16.45;100.00;101067.50;4990102;28;20208;-70
2023/09/05 03:10:23;;;;;;;2.43;1.80;;;;;;;16.43;100.00;101078.19;4996272;28;20208;-70
2023/09/05 03:12:50;;;;;;;3.63;2.10;;;;;;;16.42;100.00;101073.75;4994798;28;20613;-69
2023/09/05 03:15:18;;;;;;;2.33;2.00;;;;;;;16.45;100.00;101073.72;4991464;28;20707;-70
2023/09/05 03:17:45;;;;;;;4.00;2.10;;;;;;;16.40;100.00;101067.47;4992991;28;21007;-69
2023/09/05 03:20:14;;;;;;;3.57;2.20;;;;;;;16.46;100.00;101063.94;4994450;28;20201;-69
2023/09/05 03:22:41;;;;;;;2.83;2.37;;;;;;;16.42;100.00;101064.81;4995079;28;20196;-70
2023/09/05 03:25:08;;;;;;;6.83;2.53;;;;;;;16.36;100.00;101062.13;4995214;28;20217;-69
2023/09/05 03:27:34;;;;;;;4.40;2.00;;;;;;;16.41;100.00;101063.00;4997421;28;20197;-70
2023/09/05 03:30:00;;;;;;;3.20;2.30;;;;;;;16.46;100.00;101064.81;4989115;28;20204;-70
2023/09/05 03:32:27;;;;;;;3.00;2.30;;;;;;;16.56;100.00;101058.56;4994049;28;20231;-69
2023/09/05 03:34:53;;;;;;;4.50;2.30;;;;;;;16.63;100.00;101053.22;5004143;28;20200;-72
2023/09/05 03:37:20;;;;;;;3.07;2.07;;;;;;;16.56;100.00;101047.00;5000067;28;20212;-69
2023/09/05 03:39:48;;;;;;;2.73;1.77;;;;;;;16.46;100.00;101056.81;4996776;28;20224;-69
2023/09/05 03:42:14;;;;;;;3.10;2.23;;;;;;;16.46;100.00;101050.56;4993163;28;20640;-70
2023/09/05 03:44:41;;;;;;;2.43;2.07;;;;;;;16.50;100.00;101055.00;4995007;28;20205;-72
2023/09/05 03:47:07;;;;;;;3.20;2.43;;;;;;;16.57;100.00;101048.75;4998441;28;20224;-70
2023/09/05 03:49:33;;;;;;;3.43;2.10;;;;;;;16.64;100.00;101044.31;4998939;28;20687;-72
2023/09/05 03:52:00;;;;;;;2.13;1.93;;;;;;;16.58;100.00;101050.56;4990469;28;20225;-69
2023/09/05 03:54:26;;;;;;;3.27;2.30;;;;;;;16.54;100.00;101048.78;4993546;28;20688;-70
2023/09/05 03:56:55;;;;;;;4.13;2.50;;;;;;;16.59;100.00;101045.19;4996977;28;20220;-70
2023/09/05 03:59:21;;;;;;;2.73;2.30;;;;;;;16.62;100.00;101041.63;4995512;28;20193;-69
2023/09/05 04:01:51;;;;;;;3.37;2.20;;;;;;;16.53;100.00;101034.50;4997296;28;20287;-70
2023/09/05 04:04:17;;;;;;;5.10;2.20;;;;;;;16.50;100.00;101033.63;4993778;28;20740;-70
2023/09/05 04:06:44;;;;;;;3.87;2.40;;;;;;;16.43;100.00;101035.41;4995927;28;20278;-71
2023/09/05 04:09:10;;;;;;;2.80;2.20;;;;;;;16.45;100.00;101036.31;4996393;28;20287;-70
2023/09/05 04:11:37;;;;;;;3.07;2.23;;;;;;;16.46;100.00;101029.19;4995662;28;20201;-69
2023/09/05 04:14:03;;;;;;;3.63;2.40;;;;;;;16.40;100.00;101032.72;4994457;28;20227;-70
2023/09/05 04:16:30;;;;;;;4.70;2.37;;;;;;;16.30;100.00;101029.16;4993287;28;20221;-73
2023/09/05 04:18:56;;;;;;;4.03;2.60;;;;;;;16.20;100.00;101039.84;4991412;28;20744;-70
2023/09/05 04:21:22;;;;;;;4.70;2.57;;;;;;;16.13;100.00;101036.28;4993377;28;20196;-70
2023/09/05 04:23:49;;;;;;;5.27;2.70;;;;;;;16.04;100.00;101027.38;4993417;28;20751;-69
2023/09/05 04:26:15;;;;;;;5.83;2.30;;;;;;;15.91;100.00;101032.66;4993578;28;20228;-70
2023/09/05 04:28:41;;;;;;;5.67;2.30;;;;;;;15.87;100.00;101024.66;4996690;28;20572;-69
2023/09/05 04:31:08;;;;;;;6.37;2.40;;;;;;;15.87;100.00;101030.00;4992456;28;20223;-70
2023/09/05 04:33:39;;;;;;;5.10;2.70;;;;;;;15.83;100.00;101029.09;4996086;28;20232;-74
2023/09/05 04:36:08;;;;;;;10.50;2.77;;;;;;;15.85;100.00;101038.00;4997041;28;20323;-69
2023/09/05 04:38:35;;;;;;;9.77;2.80;;;;;;;15.98;100.00;101041.59;4999118;28;20212;-69
2023/09/05 04:41:02;;;;;;;5.23;2.20;;;;;;;15.91;100.00;101038.00;4998850;28;20193;-70
2023/09/05 04:43:29;;;;;;;4.03;2.63;;;;;;;15.85;100.00;101046.03;4996551;28;20199;-70
2023/09/05 04:45:56;;;;;;;5.57;2.67;;;;;;;15.72;100.00;101038.88;4997794;28;20227;-70
2023/09/05 04:48:23;;;;;;;4.47;2.40;;;;;;;15.70;100.00;101034.41;4996900;28;20683;-70
2023/09/05 04:50:50;;;;;;;3.17;2.20;;;;;;;15.62;100.00;101042.41;4989684;28;20251;-69
2023/09/05 04:53:16;;;;;;;5.10;2.80;;;;;;;15.57;100.00;101047.66;4991822;28;20309;-69
2023/09/05 04:55:43;;;;;;;4.50;2.57;;;;;;;15.65;100.00;101042.41;4995374;28;20216;-69
2023/09/05 04:58:14;;;;;;;4.53;2.50;;;;;;;15.62;100.00;101048.66;4993527;28;20200;-72
2023/09/05 05:00:41;;;;;;;5.23;2.70;;;;;;;15.70;100.00;101050.44;4998257;28;20279;-72
2023/09/05 05:03:08;;;;;;;3.90;2.50;;;;;;;15.79;100.00;101051.34;4993966;28;20205;-69
2023/09/05 05:05:34;;;;;;;4.10;2.80;;;;;;;16.03;100.00;101058.53;4999810;28;20620;-70
2023/09/05 05:08:01;;;;;;;5.77;2.63;;;;;;;16.06;100.00;101054.97;4994197;28;20215;-71
2023/09/05 05:10:27;;;;;;;4.13;2.80;;;;;;;16.11;100.00;101047.88;5009163;28;20677;-69
2023/09/05 05:12:54;;;;;;;5.67;2.93;;;;;;;16.16;100.00;101049.66;5008653;28;20212;-71
2023/09/05 05:15:20;;;;;;;4.97;2.70;;;;;;;16.29;100.00;101058.56;5010491;28;20295;-70
2023/09/05 05:17:47;;;;;;;10.17;3.07;;;;;;;16.30;100.00;101066.56;5005344;28;20569;-73
2023/09/05 05:20:13;;;;;;;11.97;2.90;;;;;;;16.36;100.00;101070.13;4993575;28;20201;-69
2023/09/05 05:22:40;;;;;;;14.53;3.60;;;;;;;16.40;100.00;101075.50;4994283;28;20196;-70
2023/09/05 05:25:07;;;;;;;17.67;3.77;;;;;;;16.43;100.00;101070.16;4991389;28;20664;-70
2023/09/05 05:27:33;;;;;;;19.60;4.20;;;;;;;16.45;100.00;101071.06;4996111;28;20260;-70
2023/09/05 05:30:02;;;;;;;16.70;3.73;;;;;;;16.43;100.00;101059.47;4993391;28;20694;-72
2023/09/05 05:32:28;;;;;;;13.80;3.07;;;;;;;16.48;100.00;101070.16;4991141;28;20224;-69
2023/09/05 05:34:55;;;;;;;7.53;2.90;;;;;;;16.48;100.00;101070.16;4990549;28;20197;-69
2023/09/05 05:37:21;;;;;;;10.87;3.43;;;;;;;16.51;100.00;101064.81;4986726;28;20203;-71
2023/09/05 05:39:48;;;;;;;11.40;3.80;;;;;;;16.54;100.00;101072.84;4976698;28;20197;-72
2023/09/05 05:42:14;;;;;;;10.40;3.07;;;;;;;16.52;100.00;101072.84;4998457;28;20219;-70
2023/09/05 05:44:41;;;;;;;7.33;3.13;;;;;;;16.50;100.00;101066.59;4998698;28;20200;-70
2023/09/05 05:47:07;;;;;;;6.97;2.97;;;;;;;16.59;100.00;101073.72;4996016;28;20696;-70
2023/09/05 05:49:33;;;;;;;12.33;3.10;;;;;;;16.66;100.00;101075.53;4993791;28;20283;-70
2023/09/05 05:52:00;;;;;;;8.20;3.30;;;;;;;16.70;100.00;101074.63;4992111;28;20192;-70
2023/09/05 05:54:27;;;;;;;7.37;3.17;;;;;;;16.73;100.00;101077.31;5002527;28;20235;-75
2023/09/05 05:56:58;;;;;;;13.87;3.40;;;;;;;16.76;100.00;101073.75;4992191;28;20597;-71
2023/09/05 05:59:25;;;;;;;9.40;3.37;;;;;;;16.77;100.00;101079.09;4999681;28;20229;-73
2023/09/05 06:01:52;;;;;;;8.10;2.83;;;;;;;16.77;100.00;101070.16;4996945;28;20216;-71
2023/09/05 06:04:19;;;;;;;7.37;2.90;;;;;;;16.77;100.00;101075.53;4997754;28;20193;-71
2023/09/05 06:06:48;;;;;;;10.53;2.93;;;;;;;16.86;100.00;101072.84;4990425;28;20258;-71
2023/09/05 06:09:17;;;;;;;4.07;2.87;;;;;;;16.89;100.00;101068.41;4983209;28;20577;-71
2023/09/05 06:11:44;;;;;;;6.67;2.93;;;;;;;17.00;100.00;101075.50;4995054;28;20311;-70
2023/09/05 06:14:10;;;;;;;5.60;2.63;;;;;;;17.13;100.00;101077.25;4995169;28;20223;-70
2023/09/05 06:16:37;;;;;;;5.17;3.20;;;;;;;17.22;100.00;101080.81;4995070;28;20227;-70
2023/09/05 06:19:03;;;;;;;6.67;2.80;;;;;;;17.39;100.00;101080.75;4996343;28;20322;-71
2023/09/05 06:21:30;;;;;;;5.07;2.90;;;;;;;17.54;100.00;101082.47;4987380;28;20383;-71
2023/09/05 06:23:58;;;;;;;7.80;3.10;;;;;;;17.64;100.00;101075.31;4991534;28;20201;-71
2023/09/05 06:26:24;;;;;;;6.27;3.10;;;;;;;17.80;100.00;101077.94;5000360;28;20231;-70
2023/09/05 06:28:51;;;;;;;8.03;2.90;;;;;;;17.93;100.00;101077.84;4997812;28;20201;-70
2023/09/05 06:31:17;;;;;;;8.70;3.20;;;;;;;18.05;100.00;101072.44;4992938;28;20283;-69
2023/09/05 06:33:44;;;;;;;8.57;2.97;;;;;;;18.17;100.00;101081.28;4994573;28;20275;-69
2023/09/05 06:36:11;;;;;;;8.83;2.93;;;;;;;18.28;100.00;101089.25;4994633;28;20326;-69
2023/09/05 06:38:37;;;;;;;7.80;3.30;;;;;;;18.40;100.00;101082.91;4997382;28;20197;-71
2023/09/05 06:41:06;;;;;;;7.30;3.07;;;;;;;18.57;100.00;101083.69;4997500;28;20200;-70
2023/09/05 06:43:32;;;;;;;7.67;2.90;;;;;;;18.62;100.00;101081.00;4995983;28;20272;-70
2023/09/05 06:46:08;;;;;;;7.10;3.83;;;;;;;18.65;100.00;101073.78;4992406;28;20248;-72
2023/09/05 06:48:36;;;;;;;6.37;3.20;;;;;;;18.79;100.00;101084.41;4996565;28;20675;-72
2023/09/05 06:51:02;;;;;;;8.70;2.93;;;;;;;18.88;100.00;101092.38;5000790;28;20212;-72
2023/09/05 06:53:32;;;;;;;4.20;2.90;;;;;;;18.94;100.00;101089.66;4997242;28;20221;-72
2023/09/05 06:56:01;;;;;;;4.53;2.90;;;;;;;18.97;100.00;101092.28;5002695;28;20223;-72
2023/09/05 06:58:27;;;;;;;6.57;2.70;;;;;;;19.04;100.00;101082.38;4994677;28;20200;-72
2023/09/05 07:00:54;;;;;;;4.40;2.75;;;;;;;19.14;100.00;101081.38;5001063;28;20212;-72
2023/09/05 07:03:22;;;;;;;5.07;2.77;;;;;;;19.28;100.00;101087.50;4998642;28;20729;-72
2023/09/05 07:05:49;;;;;;;6.47;2.83;;;;;;;19.56;100.00;101087.19;4993538;28;20262;-72
2023/09/05 07:08:31;;;;;;;4.90;2.70;;;;;;;20.20;100.00;101079.16;4989834;28;20212;-74
2023/09/05 07:10:58;;;;;;;6.00;3.05;;;;;;;21.68;91.61;101072.94;4997599;28;20230;-70
2023/09/05 07:13:25;;;;;;;4.63;2.95;;;;;;;22.64;71.38;101077.00;4992777;28;20230;-73
2023/09/05 07:15:51;;;;;;;6.07;2.55;;;;;;;23.27;64.00;101078.09;5005988;28;20216;-70
2023/09/05 07:18:18;;;;;;;5.05;2.72;;;;;;;24.06;59.48;101070.34;5001847;28;20247;-69
2023/09/05 07:20:44;;;;;;;5.05;3.08;;;;;;;24.29;58.18;101086.78;5013832;23;20225;-70
2023/09/05 07:23:11;;;;;;;8.77;2.65;;;;;;;24.43;55.80;101080.06;4983848;28;20271;-69
2023/09/05 07:25:38;;;;;;;5.35;2.55;;;;;;;24.41;56.03;101074.66;4974738;28;20633;-69
2023/09/05 07:28:05;;;;;;;5.05;2.53;;;;;;;24.75;55.30;101077.13;4984537;28;20201;-69
2023/09/05 07:30:33;;;;;;;5.43;2.55;;;;;;;24.65;55.45;101075.66;4975740;28;20308;-69
2023/09/05 07:33:00;;;;;;;4.18;2.60;;;;;;;24.40;56.57;101077.41;4958918;28;20768;-69
2023/09/05 07:35:26;;;;;;;8.07;2.88;;;;;;;24.29;56.22;101075.06;4963687;28;20712;-69
2023/09/05 07:37:53;;;;;;;5.15;2.45;;;;;;;23.90;57.69;101078.03;4955221;28;20209;-69
2023/09/05 07:40:22;;;;;;;4.93;3.08;;;;;;;23.62;58.03;101077.13;4971425;28;20249;-69
2023/09/05 07:42:50;;;;;;;6.32;2.53;;;;;;;23.47;59.66;101083.81;4963020;28;20197;-69
2023/09/05 07:45:16;;;;;;;5.32;2.70;;;;;;;23.02;60.56;101089.56;4958528;28;20206;-70
2023/09/05 07:47:43;;;;;;;5.13;2.70;;;;;;;22.49;62.23;101081.00;4961643;28;20236;-70
2023/09/05 07:50:09;;;;;;;4.22;2.85;;;;;;;22.45;62.59;101086.50;4954619;28;20293;-70
2023/09/05 07:52:36;;;;;;;6.80;2.70;;;;;;;22.42;64.90;101086.59;4956790;28;20229;-69
2023/09/05 07:55:03;;;;;;;4.53;2.22;;;;;;;22.41;64.04;101080.25;4950251;28;20460;-69
2023/09/05 07:57:30;;;;;;;4.78;2.85;;;;;;;22.45;63.73;101084.69;4957672;28;20206;-68
2023/09/05 07:59:56;;;;;;;6.03;2.33;;;;;;;22.50;62.50;101089.97;4952590;28;20277;-68
2023/09/05 08:02:25;;;;;;;6.88;2.70;;;;;;;22.50;61.38;101085.47;4963671;28;20449;-70
2023/09/05 08:04:51;;;;;;;4.32;2.72;;;;;;;22.50;61.85;101084.56;4955719;28;20211;-69
2023/09/05 08:07:18;;;;;;;6.10;2.63;;;;;;;22.56;62.04;101083.53;4955853;28;20210;-69
2023/09/05 08:09:44;;;;;;;6.28;2.42;;;;;;;22.59;61.24;101080.75;4960778;28;20201;-69
2023/09/05 08:12:11;;;;;;;7.38;2.80;;;;;;;22.65;60.63;101084.19;4954053;28;20226;-70
2023/09/05 08:14:37;;;;;;;6.57;2.35;;;;;;;22.77;61.08;101089.25;4963541;28;20310;-70
2023/09/05 08:17:04;;;;;;;3.53;2.40;;;;;;;22.89;61.25;101093.53;4958921;28;20211;-69
2023/09/05 08:19:34;;;;;;;4.95;2.40;;;;;;;22.93;59.80;101087.09;4956280;28;20705;-69
2023/09/05 08:22:00;;;;;;;6.40;2.47;;;;;;;23.11;59.02;101081.19;4965639;28;20229;-70
2023/09/05 08:24:26;;;;;;;3.65;2.25;;;;;;;23.25;58.44;101085.34;4965215;28;20675;-69
2023/09/05 08:26:53;;;;;;;5.10;2.60;;;;;;;23.29;58.27;101081.63;4961768;28;20550;-69
2023/09/05 08:29:23;;;;;;;5.45;2.90;;;;;;;23.25;58.05;101086.25;4965132;28;20617;-69
2023/09/05 08:31:50;;;;;;;6.20;2.75;;;;;;;23.28;58.27;101079.88;4959315;28;20233;-70
2023/09/05 08:34:16;;;;;;;8.50;2.67;;;;;;;23.34;59.52;101080.56;4967154;28;20256;-70
2023/09/05 08:36:43;;;;;;;3.60;2.63;;;;;;;23.43;58.03;101082.13;4967089;28;20205;-70
2023/09/05 08:39:09;;;;;;;3.60;2.28;;;;;;;23.53;57.86;101089.03;4963986;28;20552;-69
2023/09/05 08:41:36;;;;;;;3.80;2.70;;;;;;;23.62;58.05;101077.13;4967363;28;20241;-69
2023/09/05 08:44:04;;;;;;;4.93;2.33;;;;;;;23.68;56.59;101083.22;4970195;28;20204;-69
2023/09/05 08:46:31;;;;;;;6.53;2.50;;;;;;;23.73;55.79;101067.75;4965182;28;20210;-69
2023/09/05 08:48:57;;;;;;;6.10;2.58;;;;;;;23.76;56.80;101072.19;4961151;28;20297;-69
2023/09/05 08:51:33;;;;;;;4.95;2.60;;;;;;;23.70;57.30;101078.66;4974735;28;20273;-70
2023/09/05 08:54:00;;;;;;;5.03;2.20;;;;;;;23.71;56.92;101077.72;4959051;28;20229;-69
2023/09/05 08:56:28;;;;;;;6.10;2.80;;;;;;;23.74;57.03;101072.22;4966032;28;20214;-69
2023/09/05 08:58:56;;;;;;;5.93;2.30;;;;;;;23.85;56.57;101073.72;4965566;28;20229;-70
2023/09/05 09:01:24;;;;;;;8.73;2.45;;;;;;;23.96;56.87;101079.66;4959840;28;20237;-69
2023/09/05 09:03:53;;;;;;;9.45;2.60;;;;;;;24.15;56.63;101078.19;4954803;28;20646;-70
2023/09/05 09:06:24;;;;;;;3.20;2.33;;;;;;;24.28;56.05;101076.00;4952728;28;20206;-69
2023/09/05 09:08:51;;;;;;;5.00;2.20;;;;;;;24.18;54.67;101075.38;4953082;28;20214;-70
2023/09/05 09:11:20;;;;;;;5.10;2.47;;;;;;;24.32;53.88;101075.84;4961395;28;20230;-69
2023/09/05 09:13:51;;;;;;;4.68;2.45;;;;;;;24.44;54.34;101071.88;4955839;28;20300;-70
2023/09/05 09:16:18;;;;;;;3.67;2.40;;;;;;;24.61;54.21;101079.44;4955642;28;20210;-70
2023/09/05 09:18:48;;;;;;;7.28;2.58;;;;;;;24.69;54.86;101074.63;4960234;28;20301;-69
2023/09/05 09:21:18;;;;;;;4.28;3.10;;;;;;;24.74;54.84;101071.75;4978457;28;20229;-70
2023/09/05 09:23:49;;;;;;;5.45;2.40;;;;;;;24.78;54.00;101068.00;4962164;28;20627;-70
2023/09/05 09:26:16;;;;;;;3.40;2.67;;;;;;;24.88;53.16;101074.91;4964993;28;20213;-70
2023/09/05 09:28:43;;;;;;;3.75;2.30;;;;;;;24.90;53.83;101063.06;4959455;28;20201;-69
2023/09/05 09:31:13;;;;;;;4.35;2.47;;;;;;;24.79;54.26;101067.06;4960609;28;20230;-70
2023/09/05 09:33:41;;;;;;;7.60;2.97;;;;;;;24.60;54.10;101070.41;4955876;28;20241;-70
2023/09/05 09:36:09;;;;;;;5.03;2.47;;;;;;;24.72;53.36;101066.41;4957676;28;20256;-70
2023/09/05 09:38:39;;;;;;;4.18;2.28;;;;;;;24.63;53.48;101066.72;4957311;28;20238;-70
2023/09/05 09:41:06;;;;;;;3.95;2.45;;;;;;;24.61;55.22;101057.75;4952755;28;20217;-70
2023/09/05 09:43:35;;;;;;;4.82;2.55;;;;;;;24.69;53.74;101066.50;4961369;28;21700;-71
2023/09/05 09:46:04;;;;;;;4.13;2.30;;;;;;;24.78;51.89;101055.34;4946049;28;20207;-71
2023/09/05 09:48:34;;;;;;;6.60;2.58;;;;;;;24.84;52.22;101055.16;4957220;28;20206;-71
2023/09/05 09:51:04;;;;;;;3.60;2.25;;;;;;;24.95;51.71;101062.91;4975765;28;20264;-70
2023/09/05 09:53:37;;;;;;;3.97;2.97;;;;;;;24.96;51.96;101056.53;4962788;28;20213;-71
2023/09/05 09:56:12;;;;;;;3.78;2.42;;;;;;;25.04;52.62;101054.47;4961030;28;20238;-71
2023/09/05 09:58:45;;;;;;;3.42;2.50;;;;;;;25.16;53.03;101053.13;4958772;28;20600;-71
2023/09/05 10:01:13;;;;;;;4.25;2.40;;;;;;;25.39;52.38;101050.47;4956257;28;20225;-71
2023/09/05 10:03:41;;;;;;;4.03;2.40;;;;;;;25.52;51.48;101042.75;4958915;28;20290;-70
2023/09/05 10:06:09;;;;;;;3.92;2.20;;;;;;;25.69;51.78;101043.06;4974968;28;20210;-71
2023/09/05 10:08:36;;;;;;;4.30;2.53;;;;;;;25.77;51.29;101045.47;4963432;28;20202;-70
2023/09/05 10:11:11;;;;;;;3.58;2.58;;;;;;;25.79;50.93;101043.56;4962475;28;20605;-71
2023/09/05 10:13:40;;;;;;;3.28;2.33;;;;;;;25.81;51.75;101038.97;4967057;28;20233;-71
2023/09/05 10:16:08;;;;;;;4.38;2.35;;;;;;;25.90;50.82;101039.47;4960386;28;20241;-71
2023/09/05 10:18:38;;;;;;;3.25;2.50;;;;;;;25.65;49.80;101027.81;4955826;28;20209;-71
2023/09/05 10:21:04;;;;;;;4.40;2.50;;;;;;;25.71;51.26;101038.44;4959331;28;20238;-71
2023/09/05 10:23:35;;;;;;;7.82;2.40;;;;;;;25.77;51.41;101032.78;4961709;28;20291;-71
2023/09/05 10:26:03;;;;;;;3.40;2.65;;;;;;;25.88;50.04;101024.19;4962201;28;20280;-71
2023/09/05 10:28:29;;;;;;;3.38;2.38;;;;;;;25.75;49.80;101014.78;4962407;28;20206;-71
2023/09/05 10:31:15;;;;;;;3.03;2.08;;;;;;;25.80;50.39;101018.19;4958991;28;20246;-70
2023/09/05 10:33:46;;;;;;;4.28;2.55;;;;;;;25.97;49.63;101033.81;4963478;28;21244;-71
2023/09/05 10:36:38;;;;;;;3.10;2.30;;;;;;;26.14;49.12;101020.44;4962884;28;20218;-76
2023/09/05 10:39:24;;;;;;;3.45;2.20;;;;;;;26.24;49.28;101014.56;4954539;28;20198;-72
2023/09/05 10:41:51;;;;;;;4.57;2.80;;;;;;;26.33;49.50;101018.75;4953276;28;20220;-70
2023/09/05 10:44:18;;;;;;;3.70;2.60;;;;;;;26.33;49.45;101018.75;4958654;28;20224;-70
2023/09/05 10:46:51;;;;;;;4.32;2.40;;;;;;;26.33;49.12;101020.56;4954522;28;20213;-71
2023/09/05 10:49:18;;;;;;;6.65;2.42;;;;;;;26.45;48.64;101006.53;4955501;28;20883;-71
2023/09/05 10:52:21;;;;;;;3.47;2.20;;;;;;;26.63;48.06;101002.13;4957164;28;20643;-73
2023/09/05 10:54:48;;;;;;;2.60;2.10;;;;;;;26.77;48.28;100997.84;4951379;28;20217;-72
2023/09/05 10:57:34;;;;;;;4.93;2.28;;;;;;;26.89;47.90;101001.00;4959028;28;20294;-72
2023/09/05 11:00:26;;;;;;;2.90;2.38;;;;;;;26.85;47.51;100994.81;4954460;28;20206;-72
2023/09/05 11:02:55;;;;;;;4.60;2.33;;;;;;;26.91;48.90;100997.25;4957358;28;20253;-71
2023/09/05 11:05:27;;;;;;;5.05;2.47;;;;;;;26.94;47.17;100988.94;4975091;28;20213;-71
2023/09/05 11:07:55;;;;;;;7.40;2.13;;;;;;;27.06;45.89;100973.94;4959279;28;20206;-71
2023/09/05 11:10:34;;;;;;;3.97;2.38;;;;;;;27.15;46.35;100979.84;4966782;28;20245;-71
2023/09/05 11:13:08;;;;;;;6.22;2.30;;;;;;;27.22;47.69;100975.03;4960067;28;20284;-71
2023/09/05 11:15:36;;;;;;;2.70;2.00;;;;;;;27.18;45.59;100981.53;4956623;28;20229;-71
2023/09/05 11:18:05;;;;;;;6.72;2.28;;;;;;;27.27;45.83;100980.25;4955508;28;20216;-71
2023/09/05 11:20:45;;;;;;;4.82;2.45;;;;;;;27.29;44.20;100984.66;4974014;28;20755;-71
2023/09/05 11:23:16;;;;;;;5.50;2.40;;;;;;;27.47;44.63;100981.06;4956309;28;20205;-72
2023/09/05 11:25:43;;;;;;;2.85;2.17;;;;;;;27.43;43.88;100990.34;4965667;28;20201;-71
2023/09/05 11:28:11;;;;;;;4.93;2.30;;;;;;;27.55;44.32;100985.25;4958424;28;20268;-71